createdAt,value
2017-06-01T00:02:27.000Z,24.25
2017-06-01T00:22:27.000Z,24.13
2017-06-01T00:42:27.000Z,24.04
2017-06-01T00:52:27.000Z,23.96
2017-06-01T01:02:27.000Z,23.95
2017-06-01T01:22:27.000Z,23.87
2017-06-01T01:42:27.000Z,23.76
2017-06-01T01:52:27.000Z,23.67
2017-06-01T02:02:27.000Z,23.65
2017-06-01T03:02:33.000Z,23.31
2017-06-01T03:12:29.000Z,23.26
2017-06-01T03:22:29.000Z,23.2
2017-06-01T03:32:29.000Z,23.14
2017-06-01T03:42:29.000Z,23.11
2017-06-01T03:52:29.000Z,23.07
2017-06-01T04:02:29.000Z,23.04
2017-06-01T04:12:29.000Z,22.99
2017-06-01T04:22:29.000Z,22.97
2017-06-01T04:32:29.000Z,22.97
2017-06-01T04:42:29.000Z,23.01
2017-06-01T04:52:29.000Z,23.01
2017-06-01T05:02:29.000Z,23.03
2017-06-01T05:12:29.000Z,23.09
2017-06-01T05:22:29.000Z,23.13
2017-06-01T05:32:29.000Z,23.14
2017-06-01T05:42:29.000Z,23.21
2017-06-01T05:52:29.000Z,23.24
2017-06-01T06:02:29.000Z,23.33
2017-06-01T06:12:29.000Z,23.38
2017-06-01T06:22:29.000Z,23.4
2017-06-01T06:32:29.000Z,23.45
2017-06-01T06:42:29.000Z,23.48
2017-06-01T06:52:29.000Z,23.44
2017-06-01T07:02:29.000Z,23.53
2017-06-01T07:12:29.000Z,23.6
2017-06-01T07:22:29.000Z,23.69
2017-06-01T07:32:29.000Z,23.78
2017-06-01T07:42:29.000Z,23.95
2017-06-01T07:52:29.000Z,24.08
2017-06-01T08:02:29.000Z,24.18
2017-06-01T08:12:30.000Z,24.31
2017-06-01T08:22:29.000Z,24.37
2017-06-01T08:32:30.000Z,24.45
2017-06-01T08:42:30.000Z,24.53
2017-06-01T08:52:30.000Z,24.46
2017-06-01T09:02:30.000Z,24.64
2017-06-01T09:12:30.000Z,24.56
2017-06-01T09:22:30.000Z,24.7
2017-06-01T09:32:30.000Z,24.77
2017-06-01T09:42:30.000Z,24.88
2017-06-01T09:52:30.000Z,25.03
2017-06-01T10:02:30.000Z,25.08
2017-06-01T10:12:30.000Z,25.13
2017-06-01T10:22:30.000Z,25.11
2017-06-01T10:32:30.000Z,25.44
2017-06-01T10:42:30.000Z,25.36
2017-06-01T10:52:30.000Z,25.4
2017-06-01T11:02:30.000Z,25.58
2017-06-01T11:12:30.000Z,25.63
2017-06-01T11:22:30.000Z,25.55
2017-06-01T11:32:30.000Z,25.61
2017-06-01T11:42:30.000Z,26.04
2017-06-01T11:52:30.000Z,26.07
2017-06-01T12:02:30.000Z,25.9
2017-06-01T12:12:30.000Z,26.28
2017-06-01T12:22:30.000Z,26.34
2017-06-01T12:32:30.000Z,26.07
2017-06-01T12:42:30.000Z,26.31
2017-06-01T12:52:30.000Z,26.12
2017-06-01T13:02:30.000Z,26.35
2017-06-01T13:12:30.000Z,26.25
2017-06-01T13:22:30.000Z,26.3
2017-06-01T13:32:30.000Z,26.23
2017-06-01T13:42:30.000Z,26.2
2017-06-01T13:52:32.000Z,26.21
2017-06-01T14:02:30.000Z,26.18
2017-06-01T14:12:30.000Z,26.12
2017-06-01T14:32:30.000Z,26.27
2017-06-01T14:42:30.000Z,26.2
2017-06-01T14:52:30.000Z,26.27
2017-06-01T15:02:30.000Z,26.14
2017-06-01T15:12:30.000Z,26.14
2017-06-01T15:22:30.000Z,26.23
2017-06-01T15:32:30.000Z,26.17
2017-06-01T15:42:30.000Z,26.24
2017-06-01T15:52:31.000Z,26.14
2017-06-01T16:02:30.000Z,26.19
2017-06-01T16:12:30.000Z,26.13
2017-06-01T16:22:30.000Z,26.18
2017-06-01T16:32:30.000Z,26.19
2017-06-01T16:42:31.000Z,26.12
2017-06-01T16:52:31.000Z,26.14
2017-06-01T17:02:31.000Z,26.15
2017-06-01T17:12:31.000Z,26.22
2017-06-01T17:22:31.000Z,26.16
2017-06-01T17:32:31.000Z,26.11
2017-06-01T17:42:31.000Z,26.17
2017-06-01T17:52:31.000Z,26.17
2017-06-01T18:02:31.000Z,26.16
2017-06-01T18:12:31.000Z,26.11
2017-06-01T18:22:31.000Z,26.05
2017-06-01T18:32:31.000Z,25.92
2017-06-01T18:42:31.000Z,25.82
2017-06-01T18:52:31.000Z,25.91
2017-06-01T19:02:31.000Z,25.82
2017-06-01T19:12:31.000Z,25.83
2017-06-01T19:22:31.000Z,25.75
2017-06-01T19:32:31.000Z,25.75
2017-06-01T19:42:31.000Z,25.65
2017-06-01T19:52:31.000Z,25.67
2017-06-01T20:02:32.000Z,25.67
2017-06-01T20:12:31.000Z,25.52
2017-06-01T20:22:31.000Z,25.52
2017-06-01T20:32:31.000Z,25.65
2017-06-01T20:42:31.000Z,25.66
2017-06-01T20:52:31.000Z,25.65
2017-06-01T21:02:31.000Z,25.65
2017-06-01T21:12:31.000Z,25.61
2017-06-01T21:22:31.000Z,25.46
2017-06-01T21:32:31.000Z,25.45
2017-06-01T21:42:31.000Z,25.41
2017-06-01T21:52:31.000Z,25.3
2017-06-01T22:02:31.000Z,25.26
2017-06-01T22:12:31.000Z,25.23
2017-06-01T22:22:31.000Z,25.2
2017-06-01T22:32:31.000Z,25.15
2017-06-01T22:42:31.000Z,25.07
2017-06-01T22:52:31.000Z,25.04
2017-06-01T23:02:31.000Z,24.98
2017-06-01T23:12:31.000Z,24.94
2017-06-01T23:22:31.000Z,24.87
2017-06-01T23:32:31.000Z,24.83
2017-06-01T23:42:31.000Z,24.79
2017-06-01T23:52:31.000Z,24.72
